Kitty C — 2EIQ6 — position and weather

sailwx.info

Track history (hours):
 
Tides and Currents Weather Stations Pressure Air Temp Water Temp Dewpoint Dewpoint Depression Visibility Wind Speed Wind Dir Waves Ship Positions

Kitty C

Last reported at 2014-Dec-13 21:34 UTC. Time now 2014-Dec-18 11:26 UTC.
Position N 47°58' W 005°23'.

Length 106 m; draft 6.6 m.

Type: Cargo ship. MMSI: 235085464.

Date/timePositionNaut miles runAvg speedWind from/ knotsBaromVisibWave heightAir tempDewpointWater temp
2014-Dec-13 21:34N 47°58' W 005°23'10 9.9
2014-Dec-13 20:34N 48°07' W 005°28'10 9.6
2014-Dec-13 19:33N 48°16' W 005°34'146 7.9
2014-Dec-13 01:07N 50°15' W 003°23'5 9.0
2014-Dec-13 00:33N 50°20' W 003°21'9 8.9
2014-Dec-12 23:34N 50°28' W 003°19'5 4.4
2014-Dec-12 22:33N 50°30' W 003°26'0 0.0
2014-Dec-12 21:33N 50°30' W 003°26'0 0.0
2014-Dec-12 20:33N 50°30' W 003°26'0 0.0
2014-Dec-12 19:33N 50°30' W 003°26'0 0.0
2014-Dec-12 18:33N 50°30' W 003°26'0 0.0
2014-Dec-12 17:33N 50°30' W 003°26'0 0.0
2014-Dec-12 16:33N 50°30' W 003°26'0 0.0
2014-Dec-12 15:27N 50°30' W 003°26'0 0.0
2014-Dec-12 14:33N 50°30' W 003°26'0 0.0
2014-Dec-12 13:33N 50°30' W 003°26'0 0.0
2014-Dec-12 12:33N 50°30' W 003°26'0 0.0
2014-Dec-12 11:33N 50°30' W 003°26'0 0.0
2014-Dec-12 10:33N 50°30' W 003°26'0 0.0
2014-Dec-12 09:33N 50°30' W 003°26'0 0.1
2014-Dec-12 08:34N 50°30' W 003°25'5 4.8
2014-Dec-12 07:33N 50°32' W 003°18'1 1.2
2014-Dec-12 06:33N 50°32' W 003°16'3 2.6
2014-Dec-12 05:34N 50°30' W 003°19'3 3.3
2014-Dec-12 04:34N 50°32' W 003°15'4 4.2
2014-Dec-12 03:34N 50°28' W 003°14'4 4.2
2014-Dec-12 02:34N 50°25' W 003°10'4 4.2
2014-Dec-12 01:33N 50°25' W 003°03'4 4.0
2014-Dec-12 00:33N 50°25' W 002°57'4 3.9
2014-Dec-11 23:32N 50°25' W 002°51'24 4.5
2014-Dec-11 18:17N 50°26' W 002°14'8 7.3
2014-Dec-11 17:08N 50°27' W 002°00'5 8.1
2014-Dec-11 16:32N 50°28' W 001°53'22 7.4
2014-Dec-11 13:32N 50°31' W 001°18'10 3.0
2014-Dec-11 10:09N 50°32' W 001°02'5 1.7
2014-Dec-11 07:06N 50°33' W 000°54'9 5.9
2014-Dec-11 05:31N 50°32' W 000°40'7 6.6
2014-Dec-11 04:32N 50°32' W 000°29'7 6.9
2014-Dec-11 03:31N 50°33' W 000°18'22 4.5
2014-Dec-10 22:32N 50°33' E 000°17'5 5.0
2014-Dec-10 21:32N 50°35' E 000°24'7 7.4
2014-Dec-10 20:34N 50°37' E 000°35'9 8.8
2014-Dec-10 19:34N 50°43' E 000°46'10 9.5
2014-Dec-10 18:34N 50°49' E 000°57'20 8.6
2014-Dec-10 16:15N 51°01' E 001°22'5 7.0
2014-Dec-10 15:33N 51°05' E 001°28'6 6.4
2014-Dec-10 14:33N 51°09' E 001°36'7 6.7
2014-Dec-10 13:33N 51°13' E 001°44'8 7.8
2014-Dec-10 12:34N 51°19' E 001°52'9 9.0
2014-Dec-10 11:33N 51°24' E 002°03'9 8.9
2014-Dec-10 10:33N 51°21' E 002°16'10 9.8
2014-Dec-10 09:34N 51°23' E 002°32'8 8.0
2014-Dec-10 08:33N 51°23' E 002°45'7 7.2
2014-Dec-10 07:33N 51°23' E 002°56'9 8.6
2014-Dec-10 06:33N 51°24' E 003°10'9 9.3
2014-Dec-10 05:32N 51°25' E 003°25'9 8.7
2014-Dec-10 04:33N 51°26' E 003°39'9 8.5
2014-Dec-10 03:34N 51°21' E 003°49'2 2.1
2014-Dec-10 02:34N 51°19' E 003°50'2 2.0
2014-Dec-10 01:24N 51°17' E 003°51'0 0.0
2014-Dec-10 00:30N 51°17' E 003°51'0 0.0
2014-Dec-09 23:24N 51°17' E 003°51'0 0.0
2014-Dec-09 22:30N 51°17' E 003°51'0 0.0
2014-Dec-09 21:33N 51°17' E 003°51'0 0.0
2014-Dec-09 20:24N 51°17' E 003°51'0 0.0
2014-Dec-09 19:30N 51°17' E 003°51'0 0.0
2014-Dec-09 18:27N 51°17' E 003°51'0 0.0
2014-Dec-09 17:18N 51°17' E 003°51'0 0.0
2014-Dec-09 16:18N 51°17' E 003°51'0 0.0
2014-Dec-09 15:30N 51°17' E 003°51'0 0.0
2014-Dec-09 14:27N 51°17' E 003°51'0 0.0
2014-Dec-09 13:33N 51°17' E 003°51'0 0.0
2014-Dec-09 12:30N 51°17' E 003°51'0 0.0
2014-Dec-09 11:27N 51°17' E 003°51'0 0.0
2014-Dec-09 10:30N 51°17' E 003°51'0 0.0
2014-Dec-09 09:33N 51°17' E 003°51'0 0.0
2014-Dec-09 08:30N 51°17' E 003°51'0 0.0
2014-Dec-09 07:30N 51°17' E 003°51'0 0.0
2014-Dec-09 06:33N 51°17' E 003°51'0 0.0
2014-Dec-09 05:30N 51°17' E 003°51'0 0.0
2014-Dec-09 04:30N 51°17' E 003°51'0 0.0
2014-Dec-09 03:30N 51°17' E 003°51'0 0.0
2014-Dec-09 02:33N 51°17' E 003°51'0 0.0
2014-Dec-09 01:21N 51°17' E 003°51'0 0.0
2014-Dec-09 00:30N 51°17' E 003°51'0 0.0
2014-Dec-08 23:24N 51°17' E 003°51'0 0.0
2014-Dec-08 22:30N 51°17' E 003°51'0 0.0
2014-Dec-08 21:33N 51°17' E 003°51'0 0.0
2014-Dec-08 20:33N 51°17' E 003°51'0 0.0
2014-Dec-08 19:33N 51°17' E 003°51'0 0.0
2014-Dec-08 18:30N 51°17' E 003°51'0 0.0
2014-Dec-08 17:30N 51°17' E 003°51'0 0.0
2014-Dec-08 16:30N 51°17' E 003°51'0 0.0
2014-Dec-08 15:30N 51°17' E 003°51'0 0.0
2014-Dec-08 14:33N 51°17' E 003°51'0 0.0
2014-Dec-08 13:30N 51°17' E 003°51'0 0.0
2014-Dec-08 12:30N 51°17' E 003°51'0 0.0
2014-Dec-08 11:33N 51°17' E 003°51'0 0.0
2014-Dec-08 10:33N 51°17' E 003°51'0 0.0
2014-Dec-08 09:33N 51°17' E 003°51'0 0.0
2014-Dec-08 08:30N 51°17' E 003°51'0 0.0
2014-Dec-08 07:30N 51°17' E 003°51'0 0.0
2014-Dec-08 06:30N 51°17' E 003°51'0 0.0
2014-Dec-08 05:33N 51°17' E 003°51'0 0.0
2014-Dec-08 04:33N 51°17' E 003°51'0 0.0
2014-Dec-08 03:27N 51°17' E 003°51'0 0.0
2014-Dec-08 02:33N 51°17' E 003°51'0 0.0
2014-Dec-08 01:33N 51°17' E 003°51'0 0.0
2014-Dec-08 00:30N 51°17' E 003°51'0 0.0
2014-Dec-07 23:30N 51°17' E 003°51'0 0.0
2014-Dec-07 22:24N 51°17' E 003°51'0 0.0
2014-Dec-07 21:30N 51°17' E 003°51'0 0.0
2014-Dec-07 20:33N 51°17' E 003°51'0 0.0
2014-Dec-07 19:30N 51°17' E 003°51'0 0.0
2014-Dec-07 18:33N 51°17' E 003°51'0 0.0
2014-Dec-07 17:24N 51°17' E 003°51'0 0.0
2014-Dec-07 16:27N 51°17' E 003°51'0 0.0
2014-Dec-07 15:33N 51°17' E 003°51'0 0.0
2014-Dec-07 14:30N 51°17' E 003°51'0 0.0
2014-Dec-07 13:33N 51°17' E 003°51'0 0.0
2014-Dec-07 12:33N 51°17' E 003°51'0 0.0
2014-Dec-07 11:30N 51°17' E 003°51'0 0.0
2014-Dec-07 10:33N 51°17' E 003°51'0 0.0
2014-Dec-07 09:30N 51°17' E 003°51'0 0.0
2014-Dec-07 08:27N 51°17' E 003°51'0 0.0
2014-Dec-07 07:33N 51°17' E 003°51'0 0.0
2014-Dec-07 06:30N 51°17' E 003°51'0 0.0
2014-Dec-07 05:30N 51°17' E 003°51'0 0.0
2014-Dec-07 04:30N 51°17' E 003°51'0 0.0
2014-Dec-07 03:30N 51°17' E 003°51'0 0.0
2014-Dec-07 02:33N 51°17' E 003°51'0 0.0
2014-Dec-07 01:33N 51°17' E 003°51'0 0.0
2014-Dec-07 00:30N 51°17' E 003°51'0 0.0
2014-Dec-06 23:30N 51°17' E 003°51'0 0.0
2014-Dec-06 22:33N 51°17' E 003°51'0 0.0
2014-Dec-06 21:30N 51°17' E 003°51'0 0.0
2014-Dec-06 20:30N 51°17' E 003°51'0 0.0
2014-Dec-06 19:33N 51°17' E 003°51'0 0.0
2014-Dec-06 18:30N 51°17' E 003°51'0 0.0
2014-Dec-06 17:33N 51°17' E 003°51'0 0.0
2014-Dec-06 16:30N 51°17' E 003°51'0 0.0
2014-Dec-06 15:30N 51°17' E 003°51'0 0.0
2014-Dec-06 14:30N 51°17' E 003°51'0 0.0
2014-Dec-06 13:30N 51°17' E 003°51'0 0.0
2014-Dec-06 12:30N 51°17' E 003°51'0 0.0
2014-Dec-06 11:33N 51°17' E 003°51'0 0.0
2014-Dec-06 10:33N 51°17' E 003°51'0 0.0
2014-Dec-06 09:33N 51°17' E 003°51'0 0.0
2014-Dec-06 08:33N 51°17' E 003°51'0 0.0
2014-Dec-06 07:30N 51°17' E 003°51'0 0.0
2014-Dec-06 06:30N 51°17' E 003°51'0 0.0
2014-Dec-06 05:30N 51°17' E 003°51'0 0.0
2014-Dec-06 04:21N 51°17' E 003°51'0 0.0
2014-Dec-06 03:30N 51°17' E 003°51'0 0.0
2014-Dec-06 02:27N 51°17' E 003°51'0 0.0
2014-Dec-06 01:30N 51°17' E 003°51'0 0.0
2014-Dec-06 00:33N 51°17' E 003°51'0 0.0
2014-Dec-05 23:33N 51°17' E 003°51'0 0.0
2014-Dec-05 22:33N 51°17' E 003°51'0 0.0
2014-Dec-05 21:33N 51°17' E 003°51'0 0.0
2014-Dec-05 20:33N 51°17' E 003°51'0 0.0
2014-Dec-05 19:33N 51°17' E 003°51'0 0.0
2014-Dec-05 18:33N 51°17' E 003°51'0 0.0
2014-Dec-05 17:33N 51°17' E 003°51'0 0.0
2014-Dec-05 16:18N 51°17' E 003°51'0 0.0
2014-Dec-05 15:30N 51°17' E 003°51'0 0.0
2014-Dec-05 14:33N 51°17' E 003°51'0 0.0
2014-Dec-05 13:27N 51°17' E 003°51'0 0.0
2014-Dec-05 12:24N 51°17' E 003°51'0 0.0
2014-Dec-05 11:33N 51°17' E 003°51'0 0.0
2014-Dec-05 10:21N 51°17' E 003°51'0 0.0
2014-Dec-05 09:33N 51°17' E 003°51'0 0.0
2014-Dec-05 08:27N 51°17' E 003°51'0 0.0
2014-Dec-05 07:24N 51°17' E 003°51'0 0.0
2014-Dec-05 06:30N 51°17' E 003°51'0 0.0
2014-Dec-05 05:30N 51°17' E 003°51'0 0.0
2014-Dec-05 04:30N 51°17' E 003°51'0 0.0
2014-Dec-05 03:33N 51°17' E 003°51'0 0.0
2014-Dec-05 02:18N 51°17' E 003°51'0 0.0
2014-Dec-05 01:33N 51°17' E 003°51'0 0.0
2014-Dec-05 00:33N 51°17' E 003°51'0 0.0
2014-Dec-04 23:30N 51°17' E 003°51'0 0.0
2014-Dec-04 22:33N 51°17' E 003°51'0 0.0
2014-Dec-04 21:33N 51°17' E 003°51'0 0.0
2014-Dec-04 20:27N 51°17' E 003°51'0 0.0
2014-Dec-04 19:24N 51°17' E 003°51'0 0.0
2014-Dec-04 18:30N 51°17' E 003°51'0 0.0
2014-Dec-04 17:30N 51°17' E 003°51'0 0.0
2014-Dec-04 16:30N 51°17' E 003°51'0 0.0
2014-Dec-04 15:21N 51°17' E 003°51'0 0.0
2014-Dec-04 14:33N 51°17' E 003°51'0 0.0
2014-Dec-04 13:27N 51°17' E 003°51'0 0.0
2014-Dec-04 12:33N 51°17' E 003°51'0 0.0
2014-Dec-04 11:30N 51°17' E 003°51'0 0.0
2014-Dec-04 10:30N 51°17' E 003°51'0 0.0
2014-Dec-04 09:30N 51°17' E 003°51'0 0.0
2014-Dec-04 08:33N 51°17' E 003°51'3 2.9
2014-Dec-04 07:33N 51°19' E 003°49'2 1.6
2014-Dec-04 06:34N 51°21' E 003°48'8 8.1
2014-Dec-04 05:34N 51°28' E 003°41'1 1.0
2014-Dec-04 04:33N 51°27' E 003°42'0 0.0
2014-Dec-04 03:33N 51°27' E 003°42'0 0.0
2014-Dec-04 02:33N 51°27' E 003°42'0 0.0
2014-Dec-04 01:33N 51°27' E 003°42'0 0.0
2014-Dec-04 00:33N 51°27' E 003°42'0 0.0
2014-Dec-03 23:33N 51°27' E 003°42'0 0.0
2014-Dec-03 22:33N 51°27' E 003°42'  
Track history (hours):
 
Tides and Currents Weather Stations Pressure Air Temp Water Temp Dewpoint Dewpoint Depression Visibility Wind Speed Wind Dir Waves Ship Positions

Kitty C

Last reported at 2014-Dec-13 21:34 UTC. Time now 2014-Dec-18 11:26 UTC.
Position N 47°58' W 005°23'.

Length 106 m; draft 6.6 m.

Type: Cargo ship. MMSI: 235085464.

Date/timePositionNaut miles runAvg speedWind from/ knotsBaromVisibWave heightAir tempDewpointWater temp
2014-Dec-13 21:34N 47°58' W 005°23'10 9.9
2014-Dec-13 20:34N 48°07' W 005°28'10 9.6
2014-Dec-13 19:33N 48°16' W 005°34'146 7.9
2014-Dec-13 01:07N 50°15' W 003°23'5 9.0
2014-Dec-13 00:33N 50°20' W 003°21'9 8.9
2014-Dec-12 23:34N 50°28' W 003°19'5 4.4
2014-Dec-12 22:33N 50°30' W 003°26'0 0.0
2014-Dec-12 21:33N 50°30' W 003°26'0 0.0
2014-Dec-12 20:33N 50°30' W 003°26'0 0.0
2014-Dec-12 19:33N 50°30' W 003°26'0 0.0
2014-Dec-12 18:33N 50°30' W 003°26'0 0.0
2014-Dec-12 17:33N 50°30' W 003°26'0 0.0
2014-Dec-12 16:33N 50°30' W 003°26'0 0.0
2014-Dec-12 15:27N 50°30' W 003°26'0 0.0
2014-Dec-12 14:33N 50°30' W 003°26'0 0.0
2014-Dec-12 13:33N 50°30' W 003°26'0 0.0
2014-Dec-12 12:33N 50°30' W 003°26'0 0.0
2014-Dec-12 11:33N 50°30' W 003°26'0 0.0
2014-Dec-12 10:33N 50°30' W 003°26'0 0.0
2014-Dec-12 09:33N 50°30' W 003°26'0 0.1
2014-Dec-12 08:34N 50°30' W 003°25'5 4.8
2014-Dec-12 07:33N 50°32' W 003°18'1 1.2
2014-Dec-12 06:33N 50°32' W 003°16'3 2.6
2014-Dec-12 05:34N 50°30' W 003°19'3 3.3
2014-Dec-12 04:34N 50°32' W 003°15'4 4.2
2014-Dec-12 03:34N 50°28' W 003°14'4 4.2
2014-Dec-12 02:34N 50°25' W 003°10'4 4.2
2014-Dec-12 01:33N 50°25' W 003°03'4 4.0
2014-Dec-12 00:33N 50°25' W 002°57'4 3.9
2014-Dec-11 23:32N 50°25' W 002°51'24 4.5
2014-Dec-11 18:17N 50°26' W 002°14'8 7.3
2014-Dec-11 17:08N 50°27' W 002°00'5 8.1
2014-Dec-11 16:32N 50°28' W 001°53'22 7.4
2014-Dec-11 13:32N 50°31' W 001°18'10 3.0
2014-Dec-11 10:09N 50°32' W 001°02'5 1.7
2014-Dec-11 07:06N 50°33' W 000°54'9 5.9
2014-Dec-11 05:31N 50°32' W 000°40'7 6.6
2014-Dec-11 04:32N 50°32' W 000°29'7 6.9
2014-Dec-11 03:31N 50°33' W 000°18'22 4.5
2014-Dec-10 22:32N 50°33' E 000°17'5 5.0
2014-Dec-10 21:32N 50°35' E 000°24'7 7.4
2014-Dec-10 20:34N 50°37' E 000°35'9 8.8
2014-Dec-10 19:34N 50°43' E 000°46'10 9.5
2014-Dec-10 18:34N 50°49' E 000°57'20 8.6
2014-Dec-10 16:15N 51°01' E 001°22'5 7.0
2014-Dec-10 15:33N 51°05' E 001°28'6 6.4
2014-Dec-10 14:33N 51°09' E 001°36'7 6.7
2014-Dec-10 13:33N 51°13' E 001°44'8 7.8
2014-Dec-10 12:34N 51°19' E 001°52'9 9.0
2014-Dec-10 11:33N 51°24' E 002°03'9 8.9
2014-Dec-10 10:33N 51°21' E 002°16'10 9.8
2014-Dec-10 09:34N 51°23' E 002°32'8 8.0
2014-Dec-10 08:33N 51°23' E 002°45'7 7.2
2014-Dec-10 07:33N 51°23' E 002°56'9 8.6
2014-Dec-10 06:33N 51°24' E 003°10'9 9.3
2014-Dec-10 05:32N 51°25' E 003°25'9 8.7
2014-Dec-10 04:33N 51°26' E 003°39'9 8.5
2014-Dec-10 03:34N 51°21' E 003°49'2 2.1
2014-Dec-10 02:34N 51°19' E 003°50'2 2.0
2014-Dec-10 01:24N 51°17' E 003°51'0 0.0
2014-Dec-10 00:30N 51°17' E 003°51'0 0.0
2014-Dec-09 23:24N 51°17' E 003°51'0 0.0
2014-Dec-09 22:30N 51°17' E 003°51'0 0.0
2014-Dec-09 21:33N 51°17' E 003°51'0 0.0
2014-Dec-09 20:24N 51°17' E 003°51'0 0.0
2014-Dec-09 19:30N 51°17' E 003°51'0 0.0
2014-Dec-09 18:27N 51°17' E 003°51'0 0.0
2014-Dec-09 17:18N 51°17' E 003°51'0 0.0
2014-Dec-09 16:18N 51°17' E 003°51'0 0.0
2014-Dec-09 15:30N 51°17' E 003°51'0 0.0
2014-Dec-09 14:27N 51°17' E 003°51'0 0.0
2014-Dec-09 13:33N 51°17' E 003°51'0 0.0
2014-Dec-09 12:30N 51°17' E 003°51'0 0.0
2014-Dec-09 11:27N 51°17' E 003°51'0 0.0
2014-Dec-09 10:30N 51°17' E 003°51'0 0.0
2014-Dec-09 09:33N 51°17' E 003°51'0 0.0
2014-Dec-09 08:30N 51°17' E 003°51'0 0.0
2014-Dec-09 07:30N 51°17' E 003°51'0 0.0
2014-Dec-09 06:33N 51°17' E 003°51'0 0.0
2014-Dec-09 05:30N 51°17' E 003°51'0 0.0
2014-Dec-09 04:30N 51°17' E 003°51'0 0.0
2014-Dec-09 03:30N 51°17' E 003°51'0 0.0
2014-Dec-09 02:33N 51°17' E 003°51'0 0.0
2014-Dec-09 01:21N 51°17' E 003°51'0 0.0
2014-Dec-09 00:30N 51°17' E 003°51'0 0.0
2014-Dec-08 23:24N 51°17' E 003°51'0 0.0
2014-Dec-08 22:30N 51°17' E 003°51'0 0.0
2014-Dec-08 21:33N 51°17' E 003°51'0 0.0
2014-Dec-08 20:33N 51°17' E 003°51'0 0.0
2014-Dec-08 19:33N 51°17' E 003°51'0 0.0
2014-Dec-08 18:30N 51°17' E 003°51'0 0.0
2014-Dec-08 17:30N 51°17' E 003°51'0 0.0
2014-Dec-08 16:30N 51°17' E 003°51'0 0.0
2014-Dec-08 15:30N 51°17' E 003°51'0 0.0
2014-Dec-08 14:33N 51°17' E 003°51'0 0.0
2014-Dec-08 13:30N 51°17' E 003°51'0 0.0
2014-Dec-08 12:30N 51°17' E 003°51'0 0.0
2014-Dec-08 11:33N 51°17' E 003°51'0 0.0
2014-Dec-08 10:33N 51°17' E 003°51'0 0.0
2014-Dec-08 09:33N 51°17' E 003°51'0 0.0
2014-Dec-08 08:30N 51°17' E 003°51'0 0.0
2014-Dec-08 07:30N 51°17' E 003°51'0 0.0
2014-Dec-08 06:30N 51°17' E 003°51'0 0.0
2014-Dec-08 05:33N 51°17' E 003°51'0 0.0
2014-Dec-08 04:33N 51°17' E 003°51'0 0.0
2014-Dec-08 03:27N 51°17' E 003°51'0 0.0
2014-Dec-08 02:33N 51°17' E 003°51'0 0.0
2014-Dec-08 01:33N 51°17' E 003°51'0 0.0
2014-Dec-08 00:30N 51°17' E 003°51'0 0.0
2014-Dec-07 23:30N 51°17' E 003°51'0 0.0
2014-Dec-07 22:24N 51°17' E 003°51'0 0.0
2014-Dec-07 21:30N 51°17' E 003°51'0 0.0
2014-Dec-07 20:33N 51°17' E 003°51'0 0.0
2014-Dec-07 19:30N 51°17' E 003°51'0 0.0
2014-Dec-07 18:33N 51°17' E 003°51'0 0.0
2014-Dec-07 17:24N 51°17' E 003°51'0 0.0
2014-Dec-07 16:27N 51°17' E 003°51'0 0.0
2014-Dec-07 15:33N 51°17' E 003°51'0 0.0
2014-Dec-07 14:30N 51°17' E 003°51'0 0.0
2014-Dec-07 13:33N 51°17' E 003°51'0 0.0
2014-Dec-07 12:33N 51°17' E 003°51'0 0.0
2014-Dec-07 11:30N 51°17' E 003°51'0 0.0
2014-Dec-07 10:33N 51°17' E 003°51'0 0.0
2014-Dec-07 09:30N 51°17' E 003°51'0 0.0
2014-Dec-07 08:27N 51°17' E 003°51'0 0.0
2014-Dec-07 07:33N 51°17' E 003°51'0 0.0
2014-Dec-07 06:30N 51°17' E 003°51'0 0.0
2014-Dec-07 05:30N 51°17' E 003°51'0 0.0
2014-Dec-07 04:30N 51°17' E 003°51'0 0.0
2014-Dec-07 03:30N 51°17' E 003°51'0 0.0
2014-Dec-07 02:33N 51°17' E 003°51'0 0.0
2014-Dec-07 01:33N 51°17' E 003°51'0 0.0
2014-Dec-07 00:30N 51°17' E 003°51'0 0.0
2014-Dec-06 23:30N 51°17' E 003°51'0 0.0
2014-Dec-06 22:33N 51°17' E 003°51'0 0.0
2014-Dec-06 21:30N 51°17' E 003°51'0 0.0
2014-Dec-06 20:30N 51°17' E 003°51'0 0.0
2014-Dec-06 19:33N 51°17' E 003°51'0 0.0
2014-Dec-06 18:30N 51°17' E 003°51'0 0.0
2014-Dec-06 17:33N 51°17' E 003°51'0 0.0
2014-Dec-06 16:30N 51°17' E 003°51'0 0.0
2014-Dec-06 15:30N 51°17' E 003°51'0 0.0
2014-Dec-06 14:30N 51°17' E 003°51'0 0.0
2014-Dec-06 13:30N 51°17' E 003°51'0 0.0
2014-Dec-06 12:30N 51°17' E 003°51'0 0.0
2014-Dec-06 11:33N 51°17' E 003°51'0 0.0
2014-Dec-06 10:33N 51°17' E 003°51'0 0.0
2014-Dec-06 09:33N 51°17' E 003°51'0 0.0
2014-Dec-06 08:33N 51°17' E 003°51'0 0.0
2014-Dec-06 07:30N 51°17' E 003°51'0 0.0
2014-Dec-06 06:30N 51°17' E 003°51'0 0.0
2014-Dec-06 05:30N 51°17' E 003°51'0 0.0
2014-Dec-06 04:21N 51°17' E 003°51'0 0.0
2014-Dec-06 03:30N 51°17' E 003°51'0 0.0
2014-Dec-06 02:27N 51°17' E 003°51'0 0.0
2014-Dec-06 01:30N 51°17' E 003°51'0 0.0
2014-Dec-06 00:33N 51°17' E 003°51'0 0.0
2014-Dec-05 23:33N 51°17' E 003°51'0 0.0
2014-Dec-05 22:33N 51°17' E 003°51'0 0.0
2014-Dec-05 21:33N 51°17' E 003°51'0 0.0
2014-Dec-05 20:33N 51°17' E 003°51'0 0.0
2014-Dec-05 19:33N 51°17' E 003°51'0 0.0
2014-Dec-05 18:33N 51°17' E 003°51'0 0.0
2014-Dec-05 17:33N 51°17' E 003°51'0 0.0
2014-Dec-05 16:18N 51°17' E 003°51'0 0.0
2014-Dec-05 15:30N 51°17' E 003°51'0 0.0
2014-Dec-05 14:33N 51°17' E 003°51'0 0.0
2014-Dec-05 13:27N 51°17' E 003°51'0 0.0
2014-Dec-05 12:24N 51°17' E 003°51'0 0.0
2014-Dec-05 11:33N 51°17' E 003°51'0 0.0
2014-Dec-05 10:21N 51°17' E 003°51'0 0.0
2014-Dec-05 09:33N 51°17' E 003°51'0 0.0
2014-Dec-05 08:27N 51°17' E 003°51'0 0.0
2014-Dec-05 07:24N 51°17' E 003°51'0 0.0
2014-Dec-05 06:30N 51°17' E 003°51'0 0.0
2014-Dec-05 05:30N 51°17' E 003°51'0 0.0
2014-Dec-05 04:30N 51°17' E 003°51'0 0.0
2014-Dec-05 03:33N 51°17' E 003°51'0 0.0
2014-Dec-05 02:18N 51°17' E 003°51'0 0.0
2014-Dec-05 01:33N 51°17' E 003°51'0 0.0
2014-Dec-05 00:33N 51°17' E 003°51'0 0.0
2014-Dec-04 23:30N 51°17' E 003°51'0 0.0
2014-Dec-04 22:33N 51°17' E 003°51'0 0.0
2014-Dec-04 21:33N 51°17' E 003°51'0 0.0
2014-Dec-04 20:27N 51°17' E 003°51'0 0.0
2014-Dec-04 19:24N 51°17' E 003°51'0 0.0
2014-Dec-04 18:30N 51°17' E 003°51'0 0.0
2014-Dec-04 17:30N 51°17' E 003°51'0 0.0
2014-Dec-04 16:30N 51°17' E 003°51'0 0.0
2014-Dec-04 15:21N 51°17' E 003°51'0 0.0
2014-Dec-04 14:33N 51°17' E 003°51'0 0.0
2014-Dec-04 13:27N 51°17' E 003°51'0 0.0
2014-Dec-04 12:33N 51°17' E 003°51'0 0.0
2014-Dec-04 11:30N 51°17' E 003°51'0 0.0
2014-Dec-04 10:30N 51°17' E 003°51'0 0.0
2014-Dec-04 09:30N 51°17' E 003°51'0 0.0
2014-Dec-04 08:33N 51°17' E 003°51'3 2.9
2014-Dec-04 07:33N 51°19' E 003°49'2 1.6
2014-Dec-04 06:34N 51°21' E 003°48'8 8.1
2014-Dec-04 05:34N 51°28' E 003°41'1 1.0
2014-Dec-04 04:33N 51°27' E 003°42'0 0.0
2014-Dec-04 03:33N 51°27' E 003°42'0 0.0
2014-Dec-04 02:33N 51°27' E 003°42'0 0.0
2014-Dec-04 01:33N 51°27' E 003°42'0 0.0
2014-Dec-04 00:33N 51°27' E 003°42'0 0.0
2014-Dec-03 23:33N 51°27' E 003°42'0 0.0
2014-Dec-03 22:33N 51°27' E 003°42'  

Dump ship's entire track history